createdAt,value
2023-01-21T00:00:05.731Z,80.93
2023-01-21T00:10:11.823Z,85.00
2023-01-21T00:20:15.584Z,82.17
2023-01-21T00:30:21.055Z,83.17
2023-01-21T00:40:26.033Z,82.53
2023-01-21T00:50:30.828Z,82.43
2023-01-21T01:00:34.272Z,80.50
2023-01-21T01:10:40.195Z,81.10
2023-01-21T01:20:44.394Z,82.53
2023-01-21T01:30:49.271Z,80.67
2023-01-21T01:40:53.806Z,83.10
2023-01-21T01:51:02.063Z,79.50
2023-01-21T02:01:05.710Z,79.13
2023-01-21T02:11:14.762Z,79.83
2023-01-21T02:21:59.329Z,80.17
2023-01-21T02:32:54.474Z,79.30
2023-01-21T02:43:06.787Z,80.03
2023-01-21T02:53:26.982Z,79.03
2023-01-21T03:04:11.500Z,80.10
2023-01-21T03:14:41.727Z,79.77
2023-01-21T03:24:49.573Z,81.00
2023-01-21T03:34:56.927Z,81.47
2023-01-21T03:45:00.825Z,79.63
2023-01-21T03:55:07.245Z,77.93
2023-01-21T04:05:10.931Z,81.37
2023-01-21T04:15:15.825Z,80.43
2023-01-21T04:25:19.279Z,81.67
2023-01-21T04:35:24.178Z,79.50
2023-01-21T04:45:27.701Z,77.80
2023-01-21T04:55:32.561Z,79.90
2023-01-21T05:05:36.265Z,79.00
2023-01-21T05:15:41.156Z,78.33
2023-01-21T05:25:44.758Z,79.30
2023-01-21T05:35:49.641Z,78.50
2023-01-21T05:45:53.332Z,76.23
2023-01-21T05:55:58.966Z,78.33
2023-01-21T06:06:02.500Z,80.87
2023-01-21T06:16:08.614Z,80.40
2023-01-21T06:26:12.123Z,78.50
2023-01-21T06:36:16.941Z,82.63
2023-01-21T06:46:20.366Z,81.33
2023-01-21T06:56:25.252Z,82.50
2023-01-21T07:06:28.830Z,84.87
2023-01-21T07:16:34.686Z,90.93
2023-01-21T07:26:38.302Z,90.07
2023-01-21T07:36:43.291Z,86.70
2023-01-21T07:46:46.798Z,89.33
2023-01-21T07:56:52.998Z,88.73
2023-01-21T08:06:57.251Z,87.67
2023-01-21T08:17:02.608Z,84.63
2023-01-21T08:27:06.184Z,86.33
2023-01-21T08:37:11.061Z,90.80
2023-01-21T08:47:14.517Z,86.57
2023-01-21T08:57:19.323Z,87.73
2023-01-21T09:07:23.802Z,92.87
2023-01-21T09:17:28.898Z,91.43
2023-01-21T09:27:32.330Z,88.87
2023-01-21T09:37:38.538Z,89.33
2023-01-21T09:47:44.677Z,83.77
2023-01-21T09:58:16.615Z,91.03
2023-01-21T10:08:28.326Z,86.00
2023-01-21T10:18:37.947Z,89.03
2023-01-21T10:28:45.180Z,91.77
2023-01-21T10:39:00.958Z,91.27
2023-01-21T10:49:29.563Z,92.97
2023-01-21T10:59:37.677Z,102.47
2023-01-21T11:09:46.557Z,96.30
2023-01-21T11:20:00.806Z,94.43
2023-01-21T11:30:16.651Z,94.00
2023-01-21T11:40:30.544Z,94.63
2023-01-21T11:50:35.800Z,94.57
2023-01-21T12:00:40.692Z,90.63
2023-01-21T12:10:47.260Z,92.83
2023-01-21T12:21:01.082Z,97.03
2023-01-21T12:31:22.736Z,93.20
2023-01-21T12:41:31.760Z,91.57
2023-01-21T12:51:41.347Z,96.37
2023-01-21T13:01:56.007Z,91.70
2023-01-21T13:12:05.177Z,92.90
2023-01-21T13:22:26.691Z,96.67
2023-01-21T13:32:43.993Z,92.03
2023-01-21T13:42:58.245Z,97.17
2023-01-21T13:53:38.921Z,89.77
2023-01-21T14:03:53.211Z,95.23
2023-01-21T14:14:54.981Z,92.50
2023-01-21T14:25:20.936Z,96.30
2023-01-21T14:35:32.949Z,94.17
2023-01-21T14:45:57.965Z,92.40
2023-01-21T14:56:16.902Z,92.13
2023-01-21T15:06:24.949Z,102.33
2023-01-21T15:16:37.207Z,104.67
2023-01-21T15:26:42.429Z,105.47
2023-01-21T15:36:48.495Z,99.10
2023-01-21T15:47:00.705Z,100.53
2023-01-21T15:57:29.522Z,101.53
2023-01-21T16:07:50.677Z,101.20
2023-01-21T16:18:11.185Z,98.63
2023-01-21T16:28:20.680Z,100.67
2023-01-21T16:38:27.311Z,96.87
2023-01-21T16:48:35.426Z,101.10
2023-01-21T16:58:48.562Z,100.50
2023-01-21T17:09:00.331Z,94.37
2023-01-21T17:19:09.389Z,107.37
2023-01-21T17:29:21.306Z,114.00
2023-01-21T17:40:01.181Z,113.73
2023-01-21T17:50:23.374Z,100.43
2023-01-21T18:00:43.161Z,102.37
2023-01-21T18:10:49.184Z,103.00
2023-01-21T18:20:52.895Z,102.60
2023-01-21T18:30:59.624Z,101.57
2023-01-21T18:41:03.159Z,102.73
2023-01-21T18:51:09.185Z,105.47
2023-01-21T19:01:23.218Z,104.10
2023-01-21T19:11:28.964Z,103.23
2023-01-21T19:21:32.495Z,100.60
2023-01-21T19:31:37.481Z,100.53
2023-01-21T19:41:41.438Z,109.93
2023-01-21T19:51:46.635Z,112.80
2023-01-21T20:01:50.990Z,153.07
2023-01-21T20:11:57.301Z,134.50
2023-01-21T20:22:02.698Z,131.63
2023-01-21T20:32:08.019Z,114.33
2023-01-21T20:42:13.792Z,113.60
2023-01-21T20:52:19.146Z,116.57
2023-01-21T21:02:22.793Z,118.40
2023-01-21T21:12:27.810Z,113.07
2023-01-21T21:22:32.710Z,112.57
2023-01-21T21:32:37.712Z,120.43
2023-01-21T21:42:58.370Z,117.03
2023-01-21T21:53:03.444Z,113.23
2023-01-21T22:03:07.635Z,117.10
2023-01-21T22:13:12.519Z,112.53
2023-01-21T22:23:15.978Z,118.67
2023-01-21T22:33:22.260Z,112.40
2023-01-21T22:43:27.005Z,108.07
2023-01-21T22:53:35.848Z,119.80
2023-01-21T23:03:39.343Z,104.13
2023-01-21T23:13:45.088Z,104.00
2023-01-21T23:23:48.894Z,105.87
2023-01-21T23:33:56.175Z,102.57
2023-01-21T23:44:00.898Z,98.57
2023-01-21T23:54:05.823Z,102.10
